sensor_id;sensor_type;location;lat;lon;timestamp;P1;durP1;ratioP1;P2;durP2;ratioP2
23743;SDS011;12052;53.478;10.182;2023-06-05T00:02:06;3.80;;;1.98;;
23743;SDS011;12052;53.478;10.182;2023-06-05T00:04:32;4.53;;;2.65;;
23743;SDS011;12052;53.478;10.182;2023-06-05T00:07:01;5.32;;;2.60;;
23743;SDS011;12052;53.478;10.182;2023-06-05T00:09:27;5.80;;;2.30;;
23743;SDS011;12052;53.478;10.182;2023-06-05T00:11:52;4.20;;;2.60;;
23743;SDS011;12052;53.478;10.182;2023-06-05T00:14:18;5.53;;;2.58;;
23743;SDS011;12052;53.478;10.182;2023-06-05T00:16:44;3.90;;;2.17;;
23743;SDS011;12052;53.478;10.182;2023-06-05T00:19:09;4.30;;;2.40;;
23743;SDS011;12052;53.478;10.182;2023-06-05T00:21:35;6.45;;;2.20;;
23743;SDS011;12052;53.478;10.182;2023-06-05T00:24:01;5.07;;;2.75;;
23743;SDS011;12052;53.478;10.182;2023-06-05T00:26:26;5.55;;;2.45;;
23743;SDS011;12052;53.478;10.182;2023-06-05T00:28:52;4.88;;;2.72;;
23743;SDS011;12052;53.478;10.182;2023-06-05T00:31:18;6.07;;;3.08;;
23743;SDS011;12052;53.478;10.182;2023-06-05T00:33:44;3.88;;;2.63;;
23743;SDS011;12052;53.478;10.182;2023-06-05T00:36:09;5.53;;;2.75;;
23743;SDS011;12052;53.478;10.182;2023-06-05T00:38:36;3.58;;;2.33;;
23743;SDS011;12052;53.478;10.182;2023-06-05T00:41:01;3.95;;;2.38;;
23743;SDS011;12052;53.478;10.182;2023-06-05T00:43:27;8.00;;;2.95;;
23743;SDS011;12052;53.478;10.182;2023-06-05T00:45:54;3.60;;;2.38;;
23743;SDS011;12052;53.478;10.182;2023-06-05T00:48:23;3.97;;;2.13;;
23743;SDS011;12052;53.478;10.182;2023-06-05T00:50:50;6.07;;;2.58;;
23743;SDS011;12052;53.478;10.182;2023-06-05T00:53:15;4.75;;;2.80;;
23743;SDS011;12052;53.478;10.182;2023-06-05T00:55:41;5.13;;;2.92;;
23743;SDS011;12052;53.478;10.182;2023-06-05T00:58:07;5.95;;;2.63;;
23743;SDS011;12052;53.478;10.182;2023-06-05T01:00:33;5.13;;;2.60;;
23743;SDS011;12052;53.478;10.182;2023-06-05T01:02:59;7.50;;;3.80;;
23743;SDS011;12052;53.478;10.182;2023-06-05T01:05:26;4.05;;;3.05;;
23743;SDS011;12052;53.478;10.182;2023-06-05T01:07:52;5.22;;;2.55;;
23743;SDS011;12052;53.478;10.182;2023-06-05T01:10:18;6.63;;;2.53;;
23743;SDS011;12052;53.478;10.182;2023-06-05T01:13:20;4.88;;;2.53;;
23743;SDS011;12052;53.478;10.182;2023-06-05T01:15:47;5.97;;;2.72;;
23743;SDS011;12052;53.478;10.182;2023-06-05T01:18:14;7.28;;;3.03;;
23743;SDS011;12052;53.478;10.182;2023-06-05T01:20:43;4.13;;;2.45;;
23743;SDS011;12052;53.478;10.182;2023-06-05T01:23:09;5.25;;;2.45;;
23743;SDS011;12052;53.478;10.182;2023-06-05T01:25:35;4.07;;;2.70;;
23743;SDS011;12052;53.478;10.182;2023-06-05T01:28:20;3.67;;;1.95;;
23743;SDS011;12052;53.478;10.182;2023-06-05T01:30:54;5.03;;;2.95;;
23743;SDS011;12052;53.478;10.182;2023-06-05T01:36:11;3.65;;;2.33;;
23743;SDS011;12052;53.478;10.182;2023-06-05T01:38:39;4.70;;;2.78;;
23743;SDS011;12052;53.478;10.182;2023-06-05T01:41:06;5.40;;;2.50;;
23743;SDS011;12052;53.478;10.182;2023-06-05T01:43:32;5.32;;;2.28;;
23743;SDS011;12052;53.478;10.182;2023-06-05T01:45:59;4.50;;;2.40;;
23743;SDS011;12052;53.478;10.182;2023-06-05T01:48:25;4.00;;;2.63;;
23743;SDS011;12052;53.478;10.182;2023-06-05T01:50:55;4.20;;;2.70;;
23743;SDS011;12052;53.478;10.182;2023-06-05T01:53:21;4.38;;;2.60;;
23743;SDS011;12052;53.478;10.182;2023-06-05T01:55:47;5.13;;;2.85;;
23743;SDS011;12052;53.478;10.182;2023-06-05T01:58:13;3.65;;;2.28;;
23743;SDS011;12052;53.478;10.182;2023-06-05T02:00:40;4.85;;;2.28;;
23743;SDS011;12052;53.478;10.182;2023-06-05T02:03:06;4.47;;;2.47;;
23743;SDS011;12052;53.478;10.182;2023-06-05T02:05:32;4.00;;;2.40;;
23743;SDS011;12052;53.478;10.182;2023-06-05T02:07:58;3.25;;;1.95;;
23743;SDS011;12052;53.478;10.182;2023-06-05T02:10:24;6.47;;;2.83;;
23743;SDS011;12052;53.478;10.182;2023-06-05T02:12:50;4.78;;;2.42;;
23743;SDS011;12052;53.478;10.182;2023-06-05T02:15:16;2.95;;;2.40;;
23743;SDS011;12052;53.478;10.182;2023-06-05T02:17:42;5.65;;;3.22;;
23743;SDS011;12052;53.478;10.182;2023-06-05T02:20:15;5.93;;;2.65;;
23743;SDS011;12052;53.478;10.182;2023-06-05T02:22:41;3.90;;;2.65;;
23743;SDS011;12052;53.478;10.182;2023-06-05T02:25:09;5.30;;;2.67;;
23743;SDS011;12052;53.478;10.182;2023-06-05T02:27:38;3.92;;;2.42;;
23743;SDS011;12052;53.478;10.182;2023-06-05T02:30:04;6.75;;;2.72;;
23743;SDS011;12052;53.478;10.182;2023-06-05T02:32:30;3.45;;;2.47;;
23743;SDS011;12052;53.478;10.182;2023-06-05T02:34:56;3.97;;;2.42;;
23743;SDS011;12052;53.478;10.182;2023-06-05T02:37:22;4.90;;;3.22;;
23743;SDS011;12052;53.478;10.182;2023-06-05T02:39:49;5.38;;;2.60;;
23743;SDS011;12052;53.478;10.182;2023-06-05T02:42:14;8.80;;;3.30;;
23743;SDS011;12052;53.478;10.182;2023-06-05T02:44:40;7.03;;;3.30;;
23743;SDS011;12052;53.478;10.182;2023-06-05T02:47:05;9.63;;;3.60;;
23743;SDS011;12052;53.478;10.182;2023-06-05T02:49:31;5.03;;;2.88;;
23743;SDS011;12052;53.478;10.182;2023-06-05T02:51:58;5.45;;;3.00;;
23743;SDS011;12052;53.478;10.182;2023-06-05T02:54:24;4.95;;;2.90;;
23743;SDS011;12052;53.478;10.182;2023-06-05T02:56:52;5.32;;;2.80;;
23743;SDS011;12052;53.478;10.182;2023-06-05T02:59:18;4.47;;;2.88;;
23743;SDS011;12052;53.478;10.182;2023-06-05T03:01:44;8.38;;;3.15;;
23743;SDS011;12052;53.478;10.182;2023-06-05T03:04:12;5.95;;;2.65;;
23743;SDS011;12052;53.478;10.182;2023-06-05T03:06:39;4.43;;;2.83;;
23743;SDS011;12052;53.478;10.182;2023-06-05T03:09:08;4.35;;;3.17;;
23743;SDS011;12052;53.478;10.182;2023-06-05T03:11:34;3.88;;;2.38;;
23743;SDS011;12052;53.478;10.182;2023-06-05T03:13:59;6.55;;;3.20;;
23743;SDS011;12052;53.478;10.182;2023-06-05T03:16:25;9.25;;;2.75;;
23743;SDS011;12052;53.478;10.182;2023-06-05T03:19:02;6.15;;;3.42;;
23743;SDS011;12052;53.478;10.182;2023-06-05T03:21:28;6.57;;;2.58;;
23743;SDS011;12052;53.478;10.182;2023-06-05T03:23:53;5.80;;;2.97;;
23743;SDS011;12052;53.478;10.182;2023-06-05T03:26:19;7.22;;;3.55;;
23743;SDS011;12052;53.478;10.182;2023-06-05T03:28:47;4.50;;;2.88;;
23743;SDS011;12052;53.478;10.182;2023-06-05T03:31:13;10.50;;;3.40;;
23743;SDS011;12052;53.478;10.182;2023-06-05T03:33:38;6.22;;;2.70;;
23743;SDS011;12052;53.478;10.182;2023-06-05T03:36:04;7.90;;;3.42;;
23743;SDS011;12052;53.478;10.182;2023-06-05T03:38:30;7.10;;;3.17;;
23743;SDS011;12052;53.478;10.182;2023-06-05T03:40:55;9.43;;;3.78;;
23743;SDS011;12052;53.478;10.182;2023-06-05T03:43:21;11.32;;;4.10;;
23743;SDS011;12052;53.478;10.182;2023-06-05T03:45:49;5.80;;;3.58;;
23743;SDS011;12052;53.478;10.182;2023-06-05T03:48:16;8.48;;;4.10;;
23743;SDS011;12052;53.478;10.182;2023-06-05T03:50:45;7.90;;;3.42;;
23743;SDS011;12052;53.478;10.182;2023-06-05T03:53:11;6.97;;;3.55;;
23743;SDS011;12052;53.478;10.182;2023-06-05T03:55:38;8.50;;;3.63;;
23743;SDS011;12052;53.478;10.182;2023-06-05T03:58:16;8.13;;;4.07;;
23743;SDS011;12052;53.478;10.182;2023-06-05T04:00:41;8.25;;;4.32;;
23743;SDS011;12052;53.478;10.182;2023-06-05T04:03:11;6.80;;;3.20;;
23743;SDS011;12052;53.478;10.182;2023-06-05T04:05:37;7.93;;;3.70;;
23743;SDS011;12052;53.478;10.182;2023-06-05T04:08:04;7.03;;;4.05;;
23743;SDS011;12052;53.478;10.182;2023-06-05T04:10:30;8.10;;;3.92;;
23743;SDS011;12052;53.478;10.182;2023-06-05T04:12:56;8.13;;;4.03;;
23743;SDS011;12052;53.478;10.182;2023-06-05T04:15:25;6.18;;;3.78;;
23743;SDS011;12052;53.478;10.182;2023-06-05T04:17:51;9.00;;;3.72;;
23743;SDS011;12052;53.478;10.182;2023-06-05T04:20:17;7.20;;;3.80;;
23743;SDS011;12052;53.478;10.182;2023-06-05T04:22:43;8.27;;;4.07;;
23743;SDS011;12052;53.478;10.182;2023-06-05T04:25:10;7.97;;;3.97;;
23743;SDS011;12052;53.478;10.182;2023-06-05T04:27:41;8.70;;;3.78;;
23743;SDS011;12052;53.478;10.182;2023-06-05T04:30:08;10.55;;;4.80;;
23743;SDS011;12052;53.478;10.182;2023-06-05T04:32:35;6.95;;;4.07;;
23743;SDS011;12052;53.478;10.182;2023-06-05T04:35:05;8.40;;;4.10;;
23743;SDS011;12052;53.478;10.182;2023-06-05T04:37:33;8.20;;;4.18;;
23743;SDS011;12052;53.478;10.182;2023-06-05T04:40:00;8.40;;;4.32;;
23743;SDS011;12052;53.478;10.182;2023-06-05T04:42:30;7.55;;;4.05;;
23743;SDS011;12052;53.478;10.182;2023-06-05T04:45:02;8.05;;;4.28;;
23743;SDS011;12052;53.478;10.182;2023-06-05T04:47:30;10.15;;;4.93;;
23743;SDS011;12052;53.478;10.182;2023-06-05T04:50:00;5.75;;;3.70;;
23743;SDS011;12052;53.478;10.182;2023-06-05T04:52:33;6.78;;;4.15;;
23743;SDS011;12052;53.478;10.182;2023-06-05T04:55:05;7.97;;;4.40;;
23743;SDS011;12052;53.478;10.182;2023-06-05T04:57:31;6.30;;;4.05;;
23743;SDS011;12052;53.478;10.182;2023-06-05T04:59:56;9.35;;;4.10;;
23743;SDS011;12052;53.478;10.182;2023-06-05T05:02:22;9.38;;;4.68;;
23743;SDS011;12052;53.478;10.182;2023-06-05T05:04:48;7.65;;;4.25;;
23743;SDS011;12052;53.478;10.182;2023-06-05T05:07:14;10.88;;;4.68;;
23743;SDS011;12052;53.478;10.182;2023-06-05T05:09:41;8.98;;;4.35;;
23743;SDS011;12052;53.478;10.182;2023-06-05T05:12:10;8.60;;;3.85;;
23743;SDS011;12052;53.478;10.182;2023-06-05T05:14:36;9.93;;;4.30;;
23743;SDS011;12052;53.478;10.182;2023-06-05T05:17:02;7.10;;;3.92;;
23743;SDS011;12052;53.478;10.182;2023-06-05T05:19:28;6.25;;;3.80;;
23743;SDS011;12052;53.478;10.182;2023-06-05T05:21:55;8.32;;;4.00;;
23743;SDS011;12052;53.478;10.182;2023-06-05T05:24:21;6.90;;;3.72;;
23743;SDS011;12052;53.478;10.182;2023-06-05T05:26:48;13.25;;;4.60;;
23743;SDS011;12052;53.478;10.182;2023-06-05T05:29:14;6.95;;;3.85;;
23743;SDS011;12052;53.478;10.182;2023-06-05T05:31:40;8.45;;;4.07;;
23743;SDS011;12052;53.478;10.182;2023-06-05T05:34:06;7.70;;;4.22;;
23743;SDS011;12052;53.478;10.182;2023-06-05T05:36:31;8.68;;;4.10;;
23743;SDS011;12052;53.478;10.182;2023-06-05T05:39:01;7.88;;;3.67;;
23743;SDS011;12052;53.478;10.182;2023-06-05T05:41:27;8.38;;;4.85;;
23743;SDS011;12052;53.478;10.182;2023-06-05T05:43:53;7.63;;;4.13;;
23743;SDS011;12052;53.478;10.182;2023-06-05T05:46:19;7.63;;;3.97;;
23743;SDS011;12052;53.478;10.182;2023-06-05T05:48:44;8.82;;;3.80;;
23743;SDS011;12052;53.478;10.182;2023-06-05T05:51:10;6.25;;;3.33;;
23743;SDS011;12052;53.478;10.182;2023-06-05T05:53:35;6.55;;;3.72;;
23743;SDS011;12052;53.478;10.182;2023-06-05T05:56:01;9.35;;;3.83;;
23743;SDS011;12052;53.478;10.182;2023-06-05T05:58:26;7.53;;;3.70;;
23743;SDS011;12052;53.478;10.182;2023-06-05T06:00:52;8.65;;;3.90;;
23743;SDS011;12052;53.478;10.182;2023-06-05T06:03:18;7.25;;;4.30;;
23743;SDS011;12052;53.478;10.182;2023-06-05T06:05:44;9.13;;;3.78;;
23743;SDS011;12052;53.478;10.182;2023-06-05T06:08:10;7.57;;;3.63;;
23743;SDS011;12052;53.478;10.182;2023-06-05T06:10:36;8.38;;;4.35;;
23743;SDS011;12052;53.478;10.182;2023-06-05T06:13:01;6.00;;;3.55;;
23743;SDS011;12052;53.478;10.182;2023-06-05T06:15:27;8.07;;;4.03;;
23743;SDS011;12052;53.478;10.182;2023-06-05T06:17:53;8.13;;;3.95;;
23743;SDS011;12052;53.478;10.182;2023-06-05T06:20:19;7.85;;;4.13;;
23743;SDS011;12052;53.478;10.182;2023-06-05T06:22:44;8.25;;;3.60;;
23743;SDS011;12052;53.478;10.182;2023-06-05T06:25:10;6.75;;;3.50;;
23743;SDS011;12052;53.478;10.182;2023-06-05T06:27:37;7.20;;;3.10;;
23743;SDS011;12052;53.478;10.182;2023-06-05T06:30:03;6.65;;;3.35;;
23743;SDS011;12052;53.478;10.182;2023-06-05T06:32:29;5.18;;;3.08;;
23743;SDS011;12052;53.478;10.182;2023-06-05T06:34:55;6.93;;;3.35;;
23743;SDS011;12052;53.478;10.182;2023-06-05T06:37:21;4.43;;;2.90;;
23743;SDS011;12052;53.478;10.182;2023-06-05T06:39:47;7.43;;;2.80;;
23743;SDS011;12052;53.478;10.182;2023-06-05T06:42:13;5.47;;;2.50;;
23743;SDS011;12052;53.478;10.182;2023-06-05T06:44:39;2.80;;;2.20;;
23743;SDS011;12052;53.478;10.182;2023-06-05T06:47:05;3.47;;;2.20;;
23743;SDS011;12052;53.478;10.182;2023-06-05T06:49:31;7.60;;;3.00;;
23743;SDS011;12052;53.478;10.182;2023-06-05T06:51:58;3.10;;;2.05;;
23743;SDS011;12052;53.478;10.182;2023-06-05T06:54:23;6.82;;;2.55;;
23743;SDS011;12052;53.478;10.182;2023-06-05T06:56:50;3.97;;;2.03;;
23743;SDS011;12052;53.478;10.182;2023-06-05T06:59:16;5.95;;;2.33;;
23743;SDS011;12052;53.478;10.182;2023-06-05T07:01:43;4.95;;;2.33;;
23743;SDS011;12052;53.478;10.182;2023-06-05T07:04:11;5.53;;;2.22;;
23743;SDS011;12052;53.478;10.182;2023-06-05T07:06:41;6.05;;;1.98;;
23743;SDS011;12052;53.478;10.182;2023-06-05T07:09:10;3.83;;;2.10;;
23743;SDS011;12052;53.478;10.182;2023-06-05T07:11:36;2.85;;;1.92;;
23743;SDS011;12052;53.478;10.182;2023-06-05T07:14:02;4.88;;;2.28;;
23743;SDS011;12052;53.478;10.182;2023-06-05T07:16:27;3.00;;;2.33;;
23743;SDS011;12052;53.478;10.182;2023-06-05T07:18:53;4.82;;;2.95;;
23743;SDS011;12052;53.478;10.182;2023-06-05T07:21:20;3.70;;;2.38;;
23743;SDS011;12052;53.478;10.182;2023-06-05T07:23:49;3.10;;;2.03;;
23743;SDS011;12052;53.478;10.182;2023-06-05T07:26:18;6.32;;;2.25;;
23743;SDS011;12052;53.478;10.182;2023-06-05T07:28:44;3.90;;;1.98;;
23743;SDS011;12052;53.478;10.182;2023-06-05T07:31:11;4.10;;;1.85;;
23743;SDS011;12052;53.478;10.182;2023-06-05T07:33:41;2.30;;;1.73;;
23743;SDS011;12052;53.478;10.182;2023-06-05T07:36:07;3.38;;;1.48;;
23743;SDS011;12052;53.478;10.182;2023-06-05T07:38:33;4.00;;;1.55;;
23743;SDS011;12052;53.478;10.182;2023-06-05T07:40:58;3.78;;;2.03;;
23743;SDS011;12052;53.478;10.182;2023-06-05T07:43:26;3.20;;;1.95;;
23743;SDS011;12052;53.478;10.182;2023-06-05T07:45:52;4.35;;;1.27;;
23743;SDS011;12052;53.478;10.182;2023-06-05T07:48:18;5.15;;;1.70;;
23743;SDS011;12052;53.478;10.182;2023-06-05T07:50:44;2.30;;;1.58;;
23743;SDS011;12052;53.478;10.182;2023-06-05T07:53:10;2.67;;;1.77;;
23743;SDS011;12052;53.478;10.182;2023-06-05T07:55:35;3.28;;;1.48;;
23743;SDS011;12052;53.478;10.182;2023-06-05T07:58:01;6.32;;;2.08;;
23743;SDS011;12052;53.478;10.182;2023-06-05T08:00:27;2.90;;;1.55;;
23743;SDS011;12052;53.478;10.182;2023-06-05T08:02:53;3.60;;;1.70;;
23743;SDS011;12052;53.478;10.182;2023-06-05T08:05:18;3.03;;;1.90;;
23743;SDS011;12052;53.478;10.182;2023-06-05T08:07:44;2.70;;;1.52;;
23743;SDS011;12052;53.478;10.182;2023-06-05T08:10:10;2.83;;;1.63;;
23743;SDS011;12052;53.478;10.182;2023-06-05T08:12:37;4.00;;;1.30;;
23743;SDS011;12052;53.478;10.182;2023-06-05T08:15:02;2.92;;;1.83;;
23743;SDS011;12052;53.478;10.182;2023-06-05T08:17:28;3.83;;;1.50;;
23743;SDS011;12052;53.478;10.182;2023-06-05T08:19:54;2.55;;;1.70;;
23743;SDS011;12052;53.478;10.182;2023-06-05T08:22:19;6.30;;;1.95;;
23743;SDS011;12052;53.478;10.182;2023-06-05T08:24:45;2.53;;;1.60;;
23743;SDS011;12052;53.478;10.182;2023-06-05T08:27:13;3.83;;;1.67;;
23743;SDS011;12052;53.478;10.182;2023-06-05T08:29:39;3.78;;;1.27;;
23743;SDS011;12052;53.478;10.182;2023-06-05T08:32:04;2.10;;;1.15;;
23743;SDS011;12052;53.478;10.182;2023-06-05T08:34:30;1.85;;;1.38;;
23743;SDS011;12052;53.478;10.182;2023-06-05T08:36:57;2.53;;;1.30;;
23743;SDS011;12052;53.478;10.182;2023-06-05T08:39:26;2.13;;;1.42;;
23743;SDS011;12052;53.478;10.182;2023-06-05T08:41:56;2.83;;;1.40;;
23743;SDS011;12052;53.478;10.182;2023-06-05T08:44:25;1.70;;;1.48;;
23743;SDS011;12052;53.478;10.182;2023-06-05T08:46:52;3.15;;;1.67;;
23743;SDS011;12052;53.478;10.182;2023-06-05T08:49:25;1.70;;;1.20;;
23743;SDS011;12052;53.478;10.182;2023-06-05T08:51:58;2.45;;;1.40;;
23743;SDS011;12052;53.478;10.182;2023-06-05T08:54:31;1.73;;;1.10;;
23743;SDS011;12052;53.478;10.182;2023-06-05T08:57:07;3.20;;;1.33;;
23743;SDS011;12052;53.478;10.182;2023-06-05T08:59:34;1.70;;;1.00;;
23743;SDS011;12052;53.478;10.182;2023-06-05T09:02:00;3.20;;;2.08;;
23743;SDS011;12052;53.478;10.182;2023-06-05T09:04:26;3.65;;;1.45;;
23743;SDS011;12052;53.478;10.182;2023-06-05T09:06:58;2.78;;;1.63;;
23743;SDS011;12052;53.478;10.182;2023-06-05T09:09:24;1.73;;;1.10;;
23743;SDS011;12052;53.478;10.182;2023-06-05T09:12:00;2.80;;;1.75;;
23743;SDS011;12052;53.478;10.182;2023-06-05T09:14:30;2.88;;;1.33;;
23743;SDS011;12052;53.478;10.182;2023-06-05T09:16:57;3.47;;;1.52;;
23743;SDS011;12052;53.478;10.182;2023-06-05T09:19:23;4.32;;;2.08;;
23743;SDS011;12052;53.478;10.182;2023-06-05T09:21:52;2.35;;;1.45;;
23743;SDS011;12052;53.478;10.182;2023-06-05T09:24:20;3.13;;;1.40;;
23743;SDS011;12052;53.478;10.182;2023-06-05T09:26:58;4.05;;;1.30;;
23743;SDS011;12052;53.478;10.182;2023-06-05T09:29:32;1.42;;;1.20;;
23743;SDS011;12052;53.478;10.182;2023-06-05T09:32:02;2.40;;;1.55;;
23743;SDS011;12052;53.478;10.182;2023-06-05T09:34:33;2.22;;;1.08;;
23743;SDS011;12052;53.478;10.182;2023-06-05T09:37:04;1.05;;;0.82;;
23743;SDS011;12052;53.478;10.182;2023-06-05T09:39:34;2.20;;;1.38;;
23743;SDS011;12052;53.478;10.182;2023-06-05T09:42:01;1.58;;;1.08;;
23743;SDS011;12052;53.478;10.182;2023-06-05T09:44:27;2.15;;;1.35;;
23743;SDS011;12052;53.478;10.182;2023-06-05T09:51:52;2.45;;;0.95;;
23743;SDS011;12052;53.478;10.182;2023-06-05T09:54:20;2.75;;;1.10;;
23743;SDS011;12052;53.478;10.182;2023-06-05T09:56:47;3.92;;;1.20;;
23743;SDS011;12052;53.478;10.182;2023-06-05T09:59:16;1.75;;;1.20;;
23743;SDS011;12052;53.478;10.182;2023-06-05T10:01:51;2.15;;;1.02;;
23743;SDS011;12052;53.478;10.182;2023-06-05T10:04:18;4.43;;;1.50;;
23743;SDS011;12052;53.478;10.182;2023-06-05T10:06:48;2.47;;;1.10;;
23743;SDS011;12052;53.478;10.182;2023-06-05T10:09:16;2.55;;;1.42;;
23743;SDS011;12052;53.478;10.182;2023-06-05T10:11:43;1.92;;;1.08;;
23743;SDS011;12052;53.478;10.182;2023-06-05T10:14:09;1.67;;;1.10;;
23743;SDS011;12052;53.478;10.182;2023-06-05T10:16:35;1.85;;;1.30;;
23743;SDS011;12052;53.478;10.182;2023-06-05T10:19:00;1.30;;;1.20;;
23743;SDS011;12052;53.478;10.182;2023-06-05T10:21:28;3.60;;;1.60;;
23743;SDS011;12052;53.478;10.182;2023-06-05T10:32:06;2.17;;;0.95;;
23743;SDS011;12052;53.478;10.182;2023-06-05T10:40:16;2.17;;;1.27;;
23743;SDS011;12052;53.478;10.182;2023-06-05T10:42:42;1.90;;;1.05;;
23743;SDS011;12052;53.478;10.182;2023-06-05T10:45:09;2.75;;;1.00;;
23743;SDS011;12052;53.478;10.182;2023-06-05T10:52:45;1.45;;;0.82;;
23743;SDS011;12052;53.478;10.182;2023-06-05T10:55:11;1.80;;;1.10;;
23743;SDS011;12052;53.478;10.182;2023-06-05T11:00:35;0.98;;;0.88;;
23743;SDS011;12052;53.478;10.182;2023-06-05T11:03:02;2.08;;;0.98;;
23743;SDS011;12052;53.478;10.182;2023-06-05T11:05:28;2.00;;;1.10;;
23743;SDS011;12052;53.478;10.182;2023-06-05T11:16:28;1.73;;;1.00;;
23743;SDS011;12052;53.478;10.182;2023-06-05T11:19:33;2.00;;;1.08;;
23743;SDS011;12052;53.478;10.182;2023-06-05T11:24:32;1.67;;;1.00;;
23743;SDS011;12052;53.478;10.182;2023-06-05T11:26:59;2.05;;;1.48;;
23743;SDS011;12052;53.478;10.182;2023-06-05T11:29:25;2.25;;;0.90;;
23743;SDS011;12052;53.478;10.182;2023-06-05T11:31:52;1.63;;;1.02;;
23743;SDS011;12052;53.478;10.182;2023-06-05T11:34:17;1.83;;;1.17;;
23743;SDS011;12052;53.478;10.182;2023-06-05T11:36:43;1.10;;;0.80;;
23743;SDS011;12052;53.478;10.182;2023-06-05T11:39:13;4.97;;;1.10;;
23743;SDS011;12052;53.478;10.182;2023-06-05T11:41:49;1.02;;;0.70;;
23743;SDS011;12052;53.478;10.182;2023-06-05T11:44:29;2.63;;;0.88;;
23743;SDS011;12052;53.478;10.182;2023-06-05T11:46:57;1.33;;;1.10;;
23743;SDS011;12052;53.478;10.182;2023-06-05T11:49:23;2.05;;;1.00;;
23743;SDS011;12052;53.478;10.182;2023-06-05T11:51:50;2.95;;;1.25;;
23743;SDS011;12052;53.478;10.182;2023-06-05T11:54:26;1.58;;;0.90;;
23743;SDS011;12052;53.478;10.182;2023-06-05T11:57:02;0.90;;;0.82;;
23743;SDS011;12052;53.478;10.182;2023-06-05T11:59:36;4.57;;;1.00;;
23743;SDS011;12052;53.478;10.182;2023-06-05T12:02:02;1.73;;;1.10;;
23743;SDS011;12052;53.478;10.182;2023-06-05T12:04:30;1.30;;;1.05;;
23743;SDS011;12052;53.478;10.182;2023-06-05T12:06:56;2.28;;;1.38;;
23743;SDS011;12052;53.478;10.182;2023-06-05T12:09:22;2.92;;;1.15;;
23743;SDS011;12052;53.478;10.182;2023-06-05T12:11:48;1.35;;;1.00;;
23743;SDS011;12052;53.478;10.182;2023-06-05T12:14:27;1.17;;;0.93;;
23743;SDS011;12052;53.478;10.182;2023-06-05T12:16:56;2.00;;;1.17;;
23743;SDS011;12052;53.478;10.182;2023-06-05T12:19:22;2.40;;;1.10;;
23743;SDS011;12052;53.478;10.182;2023-06-05T12:21:48;1.98;;;1.10;;
23743;SDS011;12052;53.478;10.182;2023-06-05T12:24:16;2.42;;;1.08;;
23743;SDS011;12052;53.478;10.182;2023-06-05T12:26:54;1.85;;;1.25;;
23743;SDS011;12052;53.478;10.182;2023-06-05T12:29:32;3.08;;;1.48;;
23743;SDS011;12052;53.478;10.182;2023-06-05T12:32:00;1.77;;;1.23;;
23743;SDS011;12052;53.478;10.182;2023-06-05T12:34:40;2.53;;;1.20;;
23743;SDS011;12052;53.478;10.182;2023-06-05T12:37:22;2.45;;;1.20;;
23743;SDS011;12052;53.478;10.182;2023-06-05T12:39:48;1.30;;;1.08;;
23743;SDS011;12052;53.478;10.182;2023-06-05T12:42:14;2.92;;;1.30;;
23743;SDS011;12052;53.478;10.182;2023-06-05T12:44:39;2.50;;;1.40;;
23743;SDS011;12052;53.478;10.182;2023-06-05T12:47:05;1.35;;;1.23;;
23743;SDS011;12052;53.478;10.182;2023-06-05T12:49:31;2.15;;;0.98;;
23743;SDS011;12052;53.478;10.182;2023-06-05T12:51:57;2.03;;;1.25;;
23743;SDS011;12052;53.478;10.182;2023-06-05T12:54:22;3.22;;;1.30;;
23743;SDS011;12052;53.478;10.182;2023-06-05T12:56:48;2.05;;;1.27;;
23743;SDS011;12052;53.478;10.182;2023-06-05T12:59:14;2.05;;;1.23;;
23743;SDS011;12052;53.478;10.182;2023-06-05T13:01:39;2.28;;;1.00;;
23743;SDS011;12052;53.478;10.182;2023-06-05T13:04:05;2.80;;;1.50;;
23743;SDS011;12052;53.478;10.182;2023-06-05T13:06:31;1.45;;;1.10;;
23743;SDS011;12052;53.478;10.182;2023-06-05T13:08:59;1.73;;;1.10;;
23743;SDS011;12052;53.478;10.182;2023-06-05T13:11:25;2.35;;;1.23;;
23743;SDS011;12052;53.478;10.182;2023-06-05T13:13:51;1.83;;;1.20;;
23743;SDS011;12052;53.478;10.182;2023-06-05T13:16:17;3.97;;;1.48;;
23743;SDS011;12052;53.478;10.182;2023-06-05T13:18:42;2.22;;;1.33;;
23743;SDS011;12052;53.478;10.182;2023-06-05T13:21:08;1.35;;;0.95;;
23743;SDS011;12052;53.478;10.182;2023-06-05T13:23:33;1.77;;;1.00;;
23743;SDS011;12052;53.478;10.182;2023-06-05T13:25:59;1.38;;;1.20;;
23743;SDS011;12052;53.478;10.182;2023-06-05T13:28:25;2.00;;;1.42;;
23743;SDS011;12052;53.478;10.182;2023-06-05T13:30:51;2.13;;;1.10;;
23743;SDS011;12052;53.478;10.182;2023-06-05T13:33:18;2.00;;;1.40;;
23743;SDS011;12052;53.478;10.182;2023-06-05T13:35:44;4.80;;;1.38;;
23743;SDS011;12052;53.478;10.182;2023-06-05T13:38:09;2.03;;;1.05;;
23743;SDS011;12052;53.478;10.182;2023-06-05T13:40:35;1.10;;;1.00;;
23743;SDS011;12052;53.478;10.182;2023-06-05T13:43:01;2.85;;;1.13;;
23743;SDS011;12052;53.478;10.182;2023-06-05T13:45:26;2.40;;;1.10;;
23743;SDS011;12052;53.478;10.182;2023-06-05T13:47:52;2.20;;;1.40;;
23743;SDS011;12052;53.478;10.182;2023-06-05T13:50:18;1.80;;;1.30;;
23743;SDS011;12052;53.478;10.182;2023-06-05T13:52:47;2.10;;;1.42;;
23743;SDS011;12052;53.478;10.182;2023-06-05T13:55:12;1.88;;;1.30;;
23743;SDS011;12052;53.478;10.182;2023-06-05T13:57:38;1.73;;;1.52;;
23743;SDS011;12052;53.478;10.182;2023-06-05T14:00:04;2.58;;;1.45;;
23743;SDS011;12052;53.478;10.182;2023-06-05T14:02:30;1.67;;;0.93;;
23743;SDS011;12052;53.478;10.182;2023-06-05T14:04:56;3.25;;;1.35;;
23743;SDS011;12052;53.478;10.182;2023-06-05T14:07:22;1.60;;;1.17;;
23743;SDS011;12052;53.478;10.182;2023-06-05T14:09:48;2.13;;;1.30;;
23743;SDS011;12052;53.478;10.182;2023-06-05T14:12:13;1.58;;;1.17;;
23743;SDS011;12052;53.478;10.182;2023-06-05T14:14:39;2.85;;;1.30;;
23743;SDS011;12052;53.478;10.182;2023-06-05T14:17:05;2.65;;;1.48;;
23743;SDS011;12052;53.478;10.182;2023-06-05T14:19:31;2.90;;;1.50;;
23743;SDS011;12052;53.478;10.182;2023-06-05T14:21:57;2.15;;;1.48;;
23743;SDS011;12052;53.478;10.182;2023-06-05T14:24:23;2.10;;;1.30;;
23743;SDS011;12052;53.478;10.182;2023-06-05T14:26:49;1.25;;;1.10;;
23743;SDS011;12052;53.478;10.182;2023-06-05T14:29:14;2.28;;;1.17;;
23743;SDS011;12052;53.478;10.182;2023-06-05T14:31:40;2.28;;;1.25;;
23743;SDS011;12052;53.478;10.182;2023-06-05T14:34:06;2.22;;;1.45;;
23743;SDS011;12052;53.478;10.182;2023-06-05T14:36:31;1.70;;;1.20;;
23743;SDS011;12052;53.478;10.182;2023-06-05T14:38:57;2.25;;;1.35;;
23743;SDS011;12052;53.478;10.182;2023-06-05T14:41:23;1.58;;;1.33;;
23743;SDS011;12052;53.478;10.182;2023-06-05T14:43:49;3.17;;;1.40;;
23743;SDS011;12052;53.478;10.182;2023-06-05T14:46:15;1.90;;;1.15;;
23743;SDS011;12052;53.478;10.182;2023-06-05T14:48:42;2.00;;;1.40;;
23743;SDS011;12052;53.478;10.182;2023-06-05T14:51:09;3.17;;;1.90;;
23743;SDS011;12052;53.478;10.182;2023-06-05T14:53:35;2.65;;;1.08;;
23743;SDS011;12052;53.478;10.182;2023-06-05T14:56:00;2.08;;;1.38;;
23743;SDS011;12052;53.478;10.182;2023-06-05T14:58:26;2.00;;;1.30;;
23743;SDS011;12052;53.478;10.182;2023-06-05T15:00:51;1.90;;;1.50;;
23743;SDS011;12052;53.478;10.182;2023-06-05T15:03:17;1.45;;;1.25;;
23743;SDS011;12052;53.478;10.182;2023-06-05T15:05:43;2.20;;;1.30;;
23743;SDS011;12052;53.478;10.182;2023-06-05T15:08:09;1.42;;;1.20;;
23743;SDS011;12052;53.478;10.182;2023-06-05T15:10:35;2.00;;;1.38;;
23743;SDS011;12052;53.478;10.182;2023-06-05T15:13:01;2.47;;;1.60;;
23743;SDS011;12052;53.478;10.182;2023-06-05T15:15:27;1.70;;;1.15;;